createdAt,value
2023-06-14T00:01:36.585Z,97.20
2023-06-14T00:04:42.812Z,97.50
2023-06-14T00:07:46.141Z,97.30
2023-06-14T00:10:49.586Z,97.20
2023-06-14T00:13:52.769Z,97.30
2023-06-14T00:16:59.868Z,97.60
2023-06-14T00:20:08.175Z,97.60
2023-06-14T00:23:11.388Z,97.70
2023-06-14T00:26:14.513Z,98.00
2023-06-14T00:29:17.690Z,98.20
2023-06-14T00:32:25.720Z,98.40
2023-06-14T00:35:30.328Z,98.60
2023-06-14T00:38:33.507Z,98.70
2023-06-14T00:41:36.622Z,98.80
2023-06-14T00:44:39.836Z,99.10
2023-06-14T00:47:44.701Z,99.30
2023-06-14T00:50:51.391Z,99.80
2023-06-14T00:53:54.520Z,99.70
2023-06-14T00:56:57.774Z,99.90
2023-06-14T01:00:01.065Z,99.90
2023-06-14T01:03:04.733Z,99.90
2023-06-14T01:06:28.407Z,99.90
2023-06-14T01:09:39.944Z,99.90
2023-06-14T01:12:50.973Z,99.90
2023-06-14T01:15:55.119Z,99.90
2023-06-14T01:18:59.216Z,99.90
2023-06-14T01:22:04.340Z,99.90
2023-06-14T01:25:09.868Z,99.90
2023-06-14T01:28:14.212Z,99.90
2023-06-14T01:31:20.134Z,99.90
2023-06-14T01:34:23.560Z,99.90
2023-06-14T01:37:26.865Z,99.90
2023-06-14T01:40:32.823Z,99.90
2023-06-14T01:43:36.868Z,99.90
2023-06-14T01:46:40.524Z,99.90
2023-06-14T01:49:43.777Z,99.90
2023-06-14T01:52:47.084Z,99.90
2023-06-14T01:55:51.658Z,99.90
2023-06-14T01:58:54.836Z,99.90
2023-06-14T02:01:58.039Z,99.90
2023-06-14T02:05:01.617Z,99.90
2023-06-14T02:08:04.945Z,99.90
2023-06-14T02:11:09.422Z,99.90
2023-06-14T02:14:13.112Z,99.90
2023-06-14T02:17:17.156Z,99.90
2023-06-14T02:20:20.391Z,99.90
2023-06-14T02:23:23.518Z,99.90
2023-06-14T02:26:30.054Z,99.90
2023-06-14T02:29:33.189Z,99.90
2023-06-14T02:32:37.018Z,99.90
2023-06-14T02:35:40.293Z,99.90
2023-06-14T02:38:44.772Z,99.90
2023-06-14T02:41:49.367Z,99.90
2023-06-14T02:44:53.022Z,99.90
2023-06-14T02:47:57.137Z,99.90
2023-06-14T02:51:00.393Z,99.90
2023-06-14T02:54:03.606Z,99.90
2023-06-14T02:57:09.273Z,99.90
2023-06-14T03:00:14.685Z,99.90
2023-06-14T03:03:19.329Z,99.90
2023-06-14T03:06:26.171Z,99.90
2023-06-14T03:09:29.903Z,99.90
2023-06-14T03:12:34.395Z,99.90
2023-06-14T03:15:37.503Z,99.90
2023-06-14T03:18:40.617Z,99.90
2023-06-14T03:21:45.784Z,99.90
2023-06-14T03:24:49.201Z,99.90
2023-06-14T03:27:53.659Z,99.90
2023-06-14T03:30:57.089Z,99.90
2023-06-14T03:34:00.256Z,99.90
2023-06-14T03:37:03.536Z,99.90
2023-06-14T03:40:08.318Z,99.90
2023-06-14T03:43:12.897Z,99.90
2023-06-14T03:46:16.078Z,99.90
2023-06-14T03:49:19.162Z,99.90
2023-06-14T03:52:23.198Z,99.90
2023-06-14T03:58:36.210Z,99.90
2023-06-14T04:01:41.638Z,99.90
2023-06-14T04:04:46.539Z,99.90
2023-06-14T04:07:51.709Z,99.90
2023-06-14T04:10:55.147Z,99.90
2023-06-14T04:14:00.358Z,99.90
2023-06-14T04:17:04.036Z,99.90
2023-06-14T04:20:10.712Z,99.90
2023-06-14T04:23:15.387Z,99.90
2023-06-14T04:26:18.584Z,99.90
2023-06-14T04:29:24.662Z,99.90
2023-06-14T04:32:28.306Z,99.90
2023-06-14T04:35:33.342Z,99.90
2023-06-14T04:38:36.474Z,99.90
2023-06-14T04:41:39.634Z,99.90
2023-06-14T04:44:44.718Z,99.90
2023-06-14T04:47:48.336Z,99.90
2023-06-14T04:50:54.034Z,99.90
2023-06-14T04:53:58.037Z,99.90
2023-06-14T04:57:01.201Z,99.90
2023-06-14T05:00:07.625Z,99.90
2023-06-14T05:03:14.484Z,99.90
2023-06-14T05:06:18.596Z,99.90
2023-06-14T05:09:22.178Z,99.90
2023-06-14T05:12:25.348Z,99.90
2023-06-14T05:15:30.147Z,99.90
2023-06-14T05:18:35.209Z,99.90
2023-06-14T05:21:43.257Z,99.90
2023-06-14T05:24:48.984Z,99.90
2023-06-14T05:27:52.167Z,99.90
2023-06-14T05:30:56.664Z,99.90
2023-06-14T05:33:59.904Z,99.90
2023-06-14T05:37:05.347Z,99.90
2023-06-14T05:40:10.103Z,99.90
2023-06-14T05:43:13.243Z,99.90
2023-06-14T05:46:23.119Z,99.90
2023-06-14T05:49:26.273Z,99.90
2023-06-14T05:52:30.759Z,99.90
2023-06-14T05:55:33.924Z,99.90
2023-06-14T05:58:37.087Z,99.90
2023-06-14T06:01:41.832Z,99.90
2023-06-14T06:04:44.974Z,99.90
2023-06-14T06:07:49.328Z,99.90
2023-06-14T06:10:52.517Z,99.90
2023-06-14T06:13:55.661Z,99.90
2023-06-14T06:17:00.295Z,99.90
2023-06-14T06:20:03.606Z,99.90
2023-06-14T06:23:06.843Z,99.90
2023-06-14T06:26:10.010Z,99.90
2023-06-14T06:29:13.371Z,99.90
2023-06-14T06:32:17.983Z,99.90
2023-06-14T06:35:21.239Z,99.90
2023-06-14T06:38:24.469Z,99.90
2023-06-14T06:41:28.032Z,99.90
2023-06-14T06:44:31.435Z,99.90
2023-06-14T06:47:36.409Z,99.90
2023-06-14T06:50:39.972Z,99.90
2023-06-14T06:53:48.085Z,99.90
2023-06-14T06:56:53.676Z,99.90
2023-06-14T06:59:56.875Z,99.90
2023-06-14T07:03:01.513Z,99.90
2023-06-14T07:06:04.954Z,99.90
2023-06-14T07:09:13.317Z,99.90
2023-06-14T07:12:16.498Z,99.90
2023-06-14T07:15:19.733Z,99.90
2023-06-14T07:18:24.409Z,99.90
2023-06-14T07:21:27.903Z,99.90
2023-06-14T07:24:31.051Z,99.90
2023-06-14T07:27:34.281Z,99.90
2023-06-14T07:30:37.868Z,99.90
2023-06-14T07:33:44.213Z,99.90
2023-06-14T07:36:48.663Z,99.90
2023-06-14T07:39:51.870Z,99.90
2023-06-14T07:42:55.999Z,99.90
2023-06-14T07:46:07.818Z,99.90
2023-06-14T07:49:13.085Z,99.90
2023-06-14T07:52:16.360Z,99.90
2023-06-14T07:55:19.755Z,99.90
2023-06-14T07:58:22.952Z,99.90
2023-06-14T08:01:29.312Z,99.90
2023-06-14T08:04:34.200Z,99.90
2023-06-14T08:07:37.434Z,99.90
2023-06-14T08:10:40.617Z,99.90
2023-06-14T08:13:43.862Z,99.90
2023-06-14T08:16:47.016Z,99.90
2023-06-14T08:19:51.894Z,99.90
2023-06-14T08:22:56.457Z,99.90
2023-06-14T08:26:01.473Z,99.90
2023-06-14T08:29:04.687Z,99.90
2023-06-14T08:32:08.481Z,99.90
2023-06-14T08:35:13.707Z,99.90
2023-06-14T08:38:17.011Z,99.90
2023-06-14T08:41:25.734Z,99.90
2023-06-14T08:44:29.052Z,99.90
2023-06-14T08:47:41.783Z,99.90
2023-06-14T08:50:49.236Z,99.90
2023-06-14T08:53:55.698Z,99.90
2023-06-14T08:56:59.361Z,99.90
2023-06-14T09:00:11.189Z,99.90
2023-06-14T09:03:18.300Z,99.90
2023-06-14T09:06:24.334Z,99.90
2023-06-14T09:09:28.055Z,99.90
2023-06-14T09:12:32.500Z,99.90
2023-06-14T09:15:37.095Z,99.90
2023-06-14T09:18:42.178Z,99.90
2023-06-14T09:21:50.149Z,99.90
2023-06-14T09:24:53.332Z,99.90
2023-06-14T09:27:56.551Z,99.90
2023-06-14T09:30:59.780Z,99.90
2023-06-14T09:34:05.041Z,99.90
2023-06-14T09:37:09.653Z,99.90
2023-06-14T09:40:13.068Z,99.90
2023-06-14T09:43:16.527Z,99.90
2023-06-14T09:46:20.617Z,99.90
2023-06-14T09:49:24.947Z,99.90
2023-06-14T09:52:30.664Z,99.90
2023-06-14T09:55:38.186Z,99.90
2023-06-14T09:58:42.800Z,99.90
2023-06-14T10:01:50.992Z,99.90
2023-06-14T10:05:02.204Z,99.90
2023-06-14T10:08:11.074Z,99.90
2023-06-14T10:11:15.487Z,99.90
2023-06-14T10:14:19.670Z,99.90
2023-06-14T10:17:32.737Z,99.90
2023-06-14T10:20:42.727Z,99.90
2023-06-14T10:23:49.428Z,99.90
2023-06-14T10:26:53.846Z,99.90
2023-06-14T10:30:09.608Z,98.90
2023-06-14T10:33:17.144Z,98.50
2023-06-14T10:36:35.397Z,97.60
2023-06-14T10:39:45.335Z,96.90
2023-06-14T10:42:54.257Z,96.20
2023-06-14T10:46:17.901Z,95.70
2023-06-14T10:49:21.184Z,96.20
2023-06-14T10:52:29.158Z,94.30
2023-06-14T10:55:37.729Z,94.40
2023-06-14T10:58:41.411Z,94.20
2023-06-14T11:01:59.619Z,93.10
2023-06-14T11:05:07.885Z,93.40
2023-06-14T11:08:35.945Z,92.80
2023-06-14T11:11:44.926Z,91.50
2023-06-14T11:14:49.682Z,90.80
2023-06-14T11:17:54.546Z,90.60
2023-06-14T11:20:58.247Z,91.10
2023-06-14T11:24:01.488Z,90.70
2023-06-14T11:27:07.426Z,91.10
2023-06-14T11:30:11.615Z,91.20
2023-06-14T11:33:22.444Z,91.00
2023-06-14T11:36:25.914Z,91.10
2023-06-14T11:39:29.320Z,91.40
2023-06-14T11:42:34.142Z,91.80
2023-06-14T11:45:38.177Z,91.40
2023-06-14T11:48:44.166Z,91.70
2023-06-14T11:51:48.228Z,92.20
2023-06-14T11:54:51.504Z,92.00
2023-06-14T11:57:57.848Z,91.40
2023-06-14T12:01:01.034Z,91.50
2023-06-14T12:04:05.855Z,91.10
2023-06-14T12:07:13.452Z,91.00
2023-06-14T12:10:17.095Z,90.90
2023-06-14T12:13:21.913Z,91.10
2023-06-14T12:16:32.797Z,90.20
2023-06-14T12:19:43.449Z,89.60
2023-06-14T12:22:53.005Z,90.10
2023-06-14T12:25:56.592Z,89.90
2023-06-14T12:29:01.855Z,90.20
2023-06-14T12:32:05.342Z,90.20
2023-06-14T12:35:09.034Z,90.10
2023-06-14T12:38:12.173Z,90.10
2023-06-14T12:41:16.070Z,88.50
2023-06-14T12:44:20.648Z,88.40
2023-06-14T12:47:23.807Z,89.30
2023-06-14T12:50:27.428Z,89.70
2023-06-14T12:53:30.749Z,89.50
2023-06-14T12:56:34.087Z,88.90
2023-06-14T12:59:38.679Z,89.00
2023-06-14T13:02:41.990Z,89.00
2023-06-14T13:05:45.288Z,88.90
2023-06-14T13:08:48.421Z,89.10
2023-06-14T13:11:51.584Z,88.60
2023-06-14T13:14:56.165Z,88.80
2023-06-14T13:17:59.387Z,89.80
2023-06-14T13:21:02.652Z,90.40
2023-06-14T13:24:06.666Z,91.60
2023-06-14T13:27:09.907Z,92.20
2023-06-14T13:30:15.704Z,92.80
2023-06-14T13:33:19.408Z,92.90
2023-06-14T13:36:22.700Z,93.00
2023-06-14T13:39:25.884Z,93.30
2023-06-14T13:42:32.449Z,93.40
2023-06-14T13:45:37.441Z,93.20
2023-06-14T13:48:40.679Z,93.10
2023-06-14T13:51:44.290Z,92.10
2023-06-14T13:54:49.443Z,92.10
2023-06-14T13:57:52.803Z,92.00
2023-06-14T14:00:57.946Z,92.00
2023-06-14T14:04:01.806Z,92.00
2023-06-14T14:07:05.699Z,91.60
2023-06-14T14:10:10.081Z,92.00
2023-06-14T14:13:13.726Z,92.00
2023-06-14T14:16:18.576Z,91.60
2023-06-14T14:19:21.833Z,91.90
2023-06-14T14:22:25.035Z,91.60
2023-06-14T14:25:28.203Z,91.80
2023-06-14T14:28:31.630Z,91.10
2023-06-14T14:31:36.450Z,91.30
2023-06-14T14:34:41.166Z,91.30
2023-06-14T14:37:44.327Z,91.50
2023-06-14T14:40:47.657Z,91.80
2023-06-14T14:43:51.177Z,91.90
2023-06-14T14:46:55.732Z,92.00
2023-06-14T14:50:01.924Z,91.80
2023-06-14T14:53:05.061Z,91.90
2023-06-14T14:56:08.262Z,91.70
2023-06-14T14:59:11.407Z,91.70
2023-06-14T15:02:15.983Z,91.70
2023-06-14T15:05:19.423Z,92.30
2023-06-14T15:08:22.818Z,90.80
2023-06-14T15:11:26.649Z,90.90
2023-06-14T15:14:29.932Z,91.60
2023-06-14T15:17:34.516Z,91.60
2023-06-14T15:20:37.759Z,91.60
2023-06-14T15:23:41.046Z,91.80
2023-06-14T15:26:44.170Z,91.40
2023-06-14T15:29:49.662Z,91.00
2023-06-14T15:32:56.036Z,91.70
2023-06-14T15:35:59.217Z,91.50
2023-06-14T15:39:02.357Z,91.10
2023-06-14T15:42:07.390Z,90.90
2023-06-14T15:45:11.394Z,90.80
2023-06-14T15:48:16.000Z,90.30
2023-06-14T15:51:19.215Z,90.70
2023-06-14T15:54:22.409Z,91.10
2023-06-14T15:57:25.566Z,91.40
2023-06-14T16:00:28.829Z,91.80
2023-06-14T16:03:33.512Z,92.00
2023-06-14T16:06:37.690Z,91.90
2023-06-14T16:09:40.878Z,91.90
2023-06-14T16:12:44.104Z,91.80
2023-06-14T16:15:47.332Z,91.90
2023-06-14T16:18:52.161Z,92.10
2023-06-14T16:21:55.362Z,92.40
2023-06-14T16:24:58.559Z,92.70
2023-06-14T16:28:01.675Z,92.60
2023-06-14T16:31:05.026Z,92.70
2023-06-14T16:34:12.494Z,92.80
2023-06-14T16:37:15.819Z,92.80
2023-06-14T16:40:19.239Z,93.00
2023-06-14T16:43:22.431Z,92.90
2023-06-14T16:46:31.130Z,92.70
2023-06-14T16:49:35.846Z,93.00
2023-06-14T16:52:38.988Z,93.10
2023-06-14T16:55:42.746Z,93.30
2023-06-14T16:58:46.209Z,93.60
2023-06-14T17:01:54.221Z,93.60
2023-06-14T17:04:58.713Z,93.90
2023-06-14T17:08:02.367Z,93.70
2023-06-14T17:11:05.556Z,93.50
2023-06-14T17:14:09.057Z,93.50
2023-06-14T17:17:12.443Z,93.40
2023-06-14T17:20:17.325Z,93.50
2023-06-14T17:23:20.735Z,93.80
2023-06-14T17:26:24.014Z,93.30
2023-06-14T17:29:28.094Z,93.00
2023-06-14T17:32:31.579Z,93.10
2023-06-14T17:35:36.108Z,93.00
2023-06-14T17:38:39.680Z,93.40
2023-06-14T17:41:42.823Z,93.80
2023-06-14T17:44:46.466Z,93.50
2023-06-14T17:47:51.455Z,93.60
2023-06-14T17:50:56.687Z,94.10
2023-06-14T17:53:59.871Z,93.70
2023-06-14T17:57:03.025Z,93.70
2023-06-14T18:00:07.369Z,94.40
2023-06-14T18:03:10.651Z,94.60
2023-06-14T18:06:15.247Z,94.70
2023-06-14T18:09:18.458Z,94.90
2023-06-14T18:12:21.775Z,94.90
2023-06-14T18:15:25.157Z,95.20
2023-06-14T18:18:28.433Z,95.30
2023-06-14T18:21:33.075Z,95.40
2023-06-14T18:24:36.328Z,95.40
2023-06-14T18:27:39.482Z,95.50
2023-06-14T18:30:42.696Z,95.50
2023-06-14T18:33:46.149Z,95.70
2023-06-14T18:36:50.664Z,95.90
2023-06-14T18:39:53.986Z,96.20
2023-06-14T18:42:58.014Z,96.40
2023-06-14T18:46:01.488Z,96.70
2023-06-14T18:49:04.594Z,96.90
2023-06-14T18:52:10.609Z,97.00
2023-06-14T18:55:14.106Z,97.20
2023-06-14T18:58:18.722Z,97.40
2023-06-14T19:01:22.110Z,98.10
2023-06-14T19:04:25.370Z,98.40
2023-06-14T19:07:29.983Z,98.80
2023-06-14T19:10:33.502Z,99.10
2023-06-14T19:13:36.687Z,99.30
2023-06-14T19:16:39.833Z,99.70
2023-06-14T19:19:44.360Z,99.90
2023-06-14T19:22:48.957Z,99.90
2023-06-14T19:25:52.546Z,99.90
2023-06-14T19:28:57.700Z,99.90
2023-06-14T19:32:00.970Z,99.90
2023-06-14T19:35:04.367Z,99.90
2023-06-14T19:38:08.962Z,99.90
2023-06-14T19:41:12.138Z,99.90
2023-06-14T19:44:15.277Z,99.90
2023-06-14T19:47:18.443Z,99.90
2023-06-14T19:50:21.895Z,99.90
2023-06-14T19:53:26.463Z,99.90
2023-06-14T19:56:29.616Z,99.90
2023-06-14T19:59:33.226Z,99.90
2023-06-14T20:02:36.579Z,99.90
2023-06-14T20:05:40.022Z,99.90
2023-06-14T20:08:44.635Z,99.90
2023-06-14T20:11:47.819Z,99.90
2023-06-14T20:14:51.719Z,99.90
2023-06-14T20:17:57.640Z,99.90
2023-06-14T20:21:00.952Z,99.90
2023-06-14T20:24:05.970Z,99.90
2023-06-14T20:27:11.260Z,99.90
2023-06-14T20:30:14.620Z,99.90
2023-06-14T20:33:17.978Z,99.90
2023-06-14T20:36:22.185Z,99.90
2023-06-14T20:39:26.835Z,99.90
2023-06-14T20:42:31.163Z,99.90
2023-06-14T20:45:35.714Z,99.90
2023-06-14T20:48:39.669Z,99.90
2023-06-14T20:51:42.847Z,99.90
2023-06-14T20:54:47.453Z,99.90
2023-06-14T20:57:51.730Z,99.90
2023-06-14T21:00:54.898Z,99.90
2023-06-14T21:03:58.057Z,99.90
2023-06-14T21:07:01.252Z,99.90
2023-06-14T21:10:07.075Z,99.90
2023-06-14T21:13:10.244Z,99.90
2023-06-14T21:16:13.503Z,99.90
2023-06-14T21:19:16.737Z,99.90
2023-06-14T21:22:19.872Z,99.90
2023-06-14T21:25:24.392Z,99.90
2023-06-14T21:28:27.621Z,99.90
2023-06-14T21:31:31.087Z,99.90
2023-06-14T21:34:34.307Z,99.90
2023-06-14T21:37:37.470Z,99.90
2023-06-14T21:40:42.320Z,99.90
2023-06-14T21:43:45.471Z,99.90
2023-06-14T21:46:48.861Z,99.90
2023-06-14T21:49:52.089Z,99.90
2023-06-14T21:52:55.253Z,99.90
2023-06-14T21:55:59.884Z,99.90
2023-06-14T21:59:02.975Z,99.90
2023-06-14T22:02:06.489Z,99.90
2023-06-14T22:05:09.807Z,99.90
2023-06-14T22:08:14.002Z,99.90
2023-06-14T22:11:22.194Z,99.90
2023-06-14T22:14:25.400Z,99.90
2023-06-14T22:17:30.600Z,99.90
2023-06-14T22:20:34.077Z,99.90
2023-06-14T22:23:37.954Z,99.90
2023-06-14T22:26:48.337Z,99.90
2023-06-14T22:29:57.597Z,99.90
2023-06-14T22:33:00.915Z,99.90
2023-06-14T22:36:05.748Z,99.90
2023-06-14T22:39:09.643Z,99.90
2023-06-14T22:42:18.646Z,99.90
2023-06-14T22:45:26.790Z,99.90
2023-06-14T22:48:31.616Z,99.90
2023-06-14T22:51:34.801Z,99.90
2023-06-14T22:54:37.897Z,99.90
2023-06-14T22:57:46.898Z,99.90
2023-06-14T23:00:50.077Z,99.90
2023-06-14T23:03:53.224Z,99.90
2023-06-14T23:06:56.632Z,99.90
2023-06-14T23:09:59.858Z,99.90
2023-06-14T23:13:05.374Z,99.90
2023-06-14T23:16:09.716Z,99.90
2023-06-14T23:19:15.339Z,99.90
2023-06-14T23:22:18.572Z,99.90
2023-06-14T23:25:21.807Z,99.90
2023-06-14T23:28:28.026Z,99.90
2023-06-14T23:31:31.799Z,99.90
2023-06-14T23:34:35.524Z,99.90
2023-06-14T23:37:38.667Z,99.90
2023-06-14T23:40:41.846Z,99.90
2023-06-14T23:43:46.922Z,99.90
2023-06-14T23:46:51.474Z,99.90
2023-06-14T23:49:54.564Z,99.90
2023-06-14T23:53:00.396Z,99.90
2023-06-14T23:56:04.223Z,99.90
2023-06-14T23:59:08.808Z,99.90
